sensor_id;sensor_type;location;lat;lon;timestamp;pressure;altitude;pressure_sealevel;temperature;humidity
72038;BME280;59900;50.788;12.904;2023-05-18T00:02:13;98389.09;;;8.12;71.53
72038;BME280;59900;50.788;12.904;2023-05-18T00:04:40;98385.31;;;8.06;71.46
72038;BME280;59900;50.788;12.904;2023-05-18T00:07:06;98384.81;;;8.03;71.81
72038;BME280;59900;50.788;12.904;2023-05-18T00:09:33;98386.09;;;7.99;72.01
72038;BME280;59900;50.788;12.904;2023-05-18T00:11:58;98385.09;;;7.92;72.22
72038;BME280;59900;50.788;12.904;2023-05-18T00:14:25;98391.63;;;7.87;72.41
72038;BME280;59900;50.788;12.904;2023-05-18T00:16:50;98382.09;;;7.78;72.46
72038;BME280;59900;50.788;12.904;2023-05-18T00:19:18;98382.56;;;7.74;72.58
72038;BME280;59900;50.788;12.904;2023-05-18T00:21:44;98388.78;;;7.73;72.34
72038;BME280;59900;50.788;12.904;2023-05-18T00:24:14;98383.72;;;7.71;72.57
72038;BME280;59900;50.788;12.904;2023-05-18T00:26:40;98388.78;;;7.73;72.24
72038;BME280;59900;50.788;12.904;2023-05-18T00:29:06;98392.06;;;7.75;72.27
72038;BME280;59900;50.788;12.904;2023-05-18T00:31:33;98395.34;;;7.77;72.15
72038;BME280;59900;50.788;12.904;2023-05-18T00:34:04;98393.56;;;7.77;72.11
72038;BME280;59900;50.788;12.904;2023-05-18T00:36:30;98389.47;;;7.75;72.11
72038;BME280;59900;50.788;12.904;2023-05-18T00:38:56;98392.88;;;7.75;71.84
72038;BME280;59900;50.788;12.904;2023-05-18T00:41:22;98393.88;;;7.74;72.08
72038;BME280;59900;50.788;12.904;2023-05-18T00:43:47;98392.88;;;7.75;71.89
72038;BME280;59900;50.788;12.904;2023-05-18T00:46:12;98398.28;;;7.74;71.97
72038;BME280;59900;50.788;12.904;2023-05-18T00:48:38;98393.88;;;7.74;71.68
72038;BME280;59900;50.788;12.904;2023-05-18T00:51:04;98402.69;;;7.73;71.75
72038;BME280;59900;50.788;12.904;2023-05-18T00:53:31;98402.03;;;7.71;71.84
72038;BME280;59900;50.788;12.904;2023-05-18T00:55:57;98410.53;;;7.73;72.09
72038;BME280;59900;50.788;12.904;2023-05-18T00:58:22;98396.47;;;7.74;71.89
72038;BME280;59900;50.788;12.904;2023-05-18T01:00:47;98402.69;;;7.73;72.34
72038;BME280;59900;50.788;12.904;2023-05-18T01:03:13;98409.19;;;7.69;72.59
72038;BME280;59900;50.788;12.904;2023-05-18T01:05:39;98405.25;;;7.65;72.76
72038;BME280;59900;50.788;12.904;2023-05-18T01:08:05;98411.47;;;7.64;72.11
72038;BME280;59900;50.788;12.904;2023-05-18T01:10:32;98407.19;;;7.63;72.14
72038;BME280;59900;50.788;12.904;2023-05-18T01:13:12;98406.41;;;7.63;72.31
72038;BME280;59900;50.788;12.904;2023-05-18T01:15:39;98408.34;;;7.61;72.77
72038;BME280;59900;50.788;12.904;2023-05-18T01:18:10;98401.63;;;7.58;72.96
72038;BME280;59900;50.788;12.904;2023-05-18T01:26:22;98407.25;;;7.46;73.46
72038;BME280;59900;50.788;12.904;2023-05-18T01:28:55;98410.66;;;7.38;74.08
72038;BME280;59900;50.788;12.904;2023-05-18T01:31:21;98412.94;;;7.33;74.17
72038;BME280;59900;50.788;12.904;2023-05-18T01:33:46;98417.28;;;7.24;74.82
72038;BME280;59900;50.788;12.904;2023-05-18T01:36:12;98425.06;;;7.16;75.34
72038;BME280;59900;50.788;12.904;2023-05-18T01:38:37;98424.88;;;7.10;75.22
72038;BME280;59900;50.788;12.904;2023-05-18T01:43:51;98425.91;;;6.99;75.97
72038;BME280;59900;50.788;12.904;2023-05-18T01:46:25;98422.94;;;6.94;76.29
72038;BME280;59900;50.788;12.904;2023-05-18T01:48:58;98426.50;;;6.93;76.53
72038;BME280;59900;50.788;12.904;2023-05-18T01:51:27;98428.09;;;6.86;76.63
72038;BME280;59900;50.788;12.904;2023-05-18T01:54:01;98423.31;;;6.82;77.00
72038;BME280;59900;50.788;12.904;2023-05-18T01:56:27;98426.53;;;6.75;76.85
72038;BME280;59900;50.788;12.904;2023-05-18T01:58:54;98426.03;;;6.72;77.07
72038;BME280;59900;50.788;12.904;2023-05-18T02:01:20;98429.91;;;6.68;77.24
72038;BME280;59900;50.788;12.904;2023-05-18T02:03:46;98422.50;;;6.63;77.35
72038;BME280;59900;50.788;12.904;2023-05-18T02:06:11;98423.13;;;6.57;77.77
72038;BME280;59900;50.788;12.904;2023-05-18T02:08:37;98434.66;;;6.55;77.92
72038;BME280;59900;50.788;12.904;2023-05-18T02:11:02;98430.03;;;6.49;78.11
72038;BME280;59900;50.788;12.904;2023-05-18T02:13:27;98432.56;;;6.41;78.37
72038;BME280;59900;50.788;12.904;2023-05-18T02:15:53;98434.63;;;6.37;78.46
72038;BME280;59900;50.788;12.904;2023-05-18T02:18:18;98428.63;;;6.37;78.07
72038;BME280;59900;50.788;12.904;2023-05-18T02:20:43;98433.31;;;6.33;78.84
72038;BME280;59900;50.788;12.904;2023-05-18T02:23:08;98431.81;;;6.31;78.62
72038;BME280;59900;50.788;12.904;2023-05-18T02:25:33;98429.63;;;6.26;79.20
72038;BME280;59900;50.788;12.904;2023-05-18T02:27:59;98429.09;;;6.22;79.11
72038;BME280;59900;50.788;12.904;2023-05-18T02:30:24;98431.03;;;6.20;79.02
72038;BME280;59900;50.788;12.904;2023-05-18T02:32:49;98432.00;;;6.19;79.41
72038;BME280;59900;50.788;12.904;2023-05-18T02:35:15;98427.78;;;6.18;78.87
72038;BME280;59900;50.788;12.904;2023-05-18T02:37:41;98433.28;;;6.15;79.06
72038;BME280;59900;50.788;12.904;2023-05-18T02:40:11;98431.78;;;6.13;79.08
72038;BME280;59900;50.788;12.904;2023-05-18T02:42:37;98437.44;;;6.08;79.40
72038;BME280;59900;50.788;12.904;2023-05-18T02:45:03;98437.19;;;6.02;79.59
72038;BME280;59900;50.788;12.904;2023-05-18T02:47:28;98438.47;;;5.98;79.79
72038;BME280;59900;50.788;12.904;2023-05-18T02:49:54;98435.59;;;5.91;79.87
72038;BME280;59900;50.788;12.904;2023-05-18T02:52:19;98439.03;;;5.92;79.72
72038;BME280;59900;50.788;12.904;2023-05-18T02:54:44;98434.63;;;5.92;79.59
72038;BME280;59900;50.788;12.904;2023-05-18T02:57:10;98439.84;;;5.92;79.70
72038;BME280;59900;50.788;12.904;2023-05-18T02:59:36;98436.56;;;5.90;79.62
72038;BME280;59900;50.788;12.904;2023-05-18T03:02:01;98430.97;;;5.85;79.72
72038;BME280;59900;50.788;12.904;2023-05-18T03:04:27;98435.31;;;5.85;79.99
72038;BME280;59900;50.788;12.904;2023-05-18T03:06:52;98440.03;;;5.81;80.06
72038;BME280;59900;50.788;12.904;2023-05-18T03:09:17;98445.66;;;5.77;79.74
72038;BME280;59900;50.788;12.904;2023-05-18T03:11:43;98432.06;;;5.73;80.02
72038;BME280;59900;50.788;12.904;2023-05-18T03:14:08;98442.66;;;5.72;79.81
72038;BME280;59900;50.788;12.904;2023-05-18T03:16:33;98437.84;;;5.67;80.02
72038;BME280;59900;50.788;12.904;2023-05-18T03:18:59;98445.28;;;5.62;79.79
72038;BME280;59900;50.788;12.904;2023-05-18T03:21:26;98437.75;;;5.59;80.28
72038;BME280;59900;50.788;12.904;2023-05-18T03:23:57;98441.47;;;5.56;80.17
72038;BME280;59900;50.788;12.904;2023-05-18T03:26:22;98443.81;;;5.50;80.24
72038;BME280;59900;50.788;12.904;2023-05-18T03:28:50;98450.31;;;5.46;80.56
72038;BME280;59900;50.788;12.904;2023-05-18T03:31:15;98453.47;;;5.40;80.86
72038;BME280;59900;50.788;12.904;2023-05-18T03:33:40;98450.88;;;5.40;81.09
72038;BME280;59900;50.788;12.904;2023-05-18T03:36:06;98458.81;;;5.38;80.78
72038;BME280;59900;50.788;12.904;2023-05-18T03:38:31;98463.19;;;5.38;80.81
72038;BME280;59900;50.788;12.904;2023-05-18T03:40:56;98463.75;;;5.32;80.89
72038;BME280;59900;50.788;12.904;2023-05-18T03:43:22;98458.69;;;5.30;81.64
72038;BME280;59900;50.788;12.904;2023-05-18T03:45:49;98458.69;;;5.30;81.38
72038;BME280;59900;50.788;12.904;2023-05-18T03:48:15;98462.41;;;5.28;81.23
72038;BME280;59900;50.788;12.904;2023-05-18T03:50:40;98463.50;;;5.25;81.61
72038;BME280;59900;50.788;12.904;2023-05-18T03:53:05;98465.13;;;5.26;81.85
72038;BME280;59900;50.788;12.904;2023-05-18T03:55:30;98471.72;;;5.21;81.75
72038;BME280;59900;50.788;12.904;2023-05-18T03:57:56;98471.34;;;5.16;81.95
72038;BME280;59900;50.788;12.904;2023-05-18T04:00:23;98472.56;;;5.12;81.86
72038;BME280;59900;50.788;12.904;2023-05-18T04:02:48;98472.56;;;5.12;82.16
72038;BME280;59900;50.788;12.904;2023-05-18T04:05:16;98474.78;;;5.16;81.46
72038;BME280;59900;50.788;12.904;2023-05-18T04:07:41;98470.91;;;5.20;81.53
72038;BME280;59900;50.788;12.904;2023-05-18T04:10:11;98473.09;;;5.25;81.43
72038;BME280;59900;50.788;12.904;2023-05-18T04:12:37;98475.16;;;5.31;81.98
72038;BME280;59900;50.788;12.904;2023-05-18T04:15:03;98481.88;;;5.33;81.92
72038;BME280;59900;50.788;12.904;2023-05-18T04:17:28;98479.25;;;5.33;81.47
72038;BME280;59900;50.788;12.904;2023-05-18T04:19:54;98479.09;;;5.35;81.80
72038;BME280;59900;50.788;12.904;2023-05-18T04:22:19;98479.81;;;5.37;81.51
72038;BME280;59900;50.788;12.904;2023-05-18T04:24:46;98484.88;;;5.38;81.83
72038;BME280;59900;50.788;12.904;2023-05-18T04:27:11;98481.97;;;5.41;81.28
72038;BME280;59900;50.788;12.904;2023-05-18T04:29:37;98487.31;;;5.49;80.95
72038;BME280;59900;50.788;12.904;2023-05-18T04:32:07;98477.16;;;5.56;80.50
72038;BME280;59900;50.788;12.904;2023-05-18T04:34:33;98484.66;;;5.69;80.48
72038;BME280;59900;50.788;12.904;2023-05-18T04:37:02;98481.88;;;5.80;80.12
72038;BME280;59900;50.788;12.904;2023-05-18T04:39:29;98489.72;;;5.89;80.15
72038;BME280;59900;50.788;12.904;2023-05-18T04:41:55;98491.47;;;5.98;80.32
72038;BME280;59900;50.788;12.904;2023-05-18T04:44:31;98493.34;;;6.06;79.55
72038;BME280;59900;50.788;12.904;2023-05-18T04:46:58;98494.16;;;6.06;78.92
72038;BME280;59900;50.788;12.904;2023-05-18T04:49:23;98488.78;;;6.08;79.13
72038;BME280;59900;50.788;12.904;2023-05-18T04:51:51;98492.09;;;6.10;79.26
72038;BME280;59900;50.788;12.904;2023-05-18T04:54:21;98495.38;;;6.12;79.19
72038;BME280;59900;50.788;12.904;2023-05-18T04:56:47;98495.09;;;6.15;78.97
72038;BME280;59900;50.788;12.904;2023-05-18T04:59:13;98500.84;;;6.18;79.21
72038;BME280;59900;50.788;12.904;2023-05-18T05:01:38;98504.13;;;6.20;78.96
72038;BME280;59900;50.788;12.904;2023-05-18T05:04:03;98497.66;;;6.25;79.39
72038;BME280;59900;50.788;12.904;2023-05-18T05:06:30;98499.69;;;6.31;79.25
72038;BME280;59900;50.788;12.904;2023-05-18T05:08:55;98497.59;;;6.34;78.79
72038;BME280;59900;50.788;12.904;2023-05-18T05:11:20;98497.16;;;6.39;78.84
72038;BME280;59900;50.788;12.904;2023-05-18T05:13:46;98502.91;;;6.42;78.04
72038;BME280;59900;50.788;12.904;2023-05-18T05:16:11;98498.38;;;6.44;77.89
72038;BME280;59900;50.788;12.904;2023-05-18T05:18:36;98497.78;;;6.50;78.17
72038;BME280;59900;50.788;12.904;2023-05-18T05:21:02;98497.84;;;6.58;78.23
72038;BME280;59900;50.788;12.904;2023-05-18T05:23:27;98495.94;;;6.60;78.05
72038;BME280;59900;50.788;12.904;2023-05-18T05:25:53;98502.50;;;6.64;77.86
72038;BME280;59900;50.788;12.904;2023-05-18T05:28:18;98503.84;;;6.68;78.06
72038;BME280;59900;50.788;12.904;2023-05-18T05:30:43;98497.50;;;6.71;78.22
72038;BME280;59900;50.788;12.904;2023-05-18T05:33:09;98496.91;;;6.77;78.42
72038;BME280;59900;50.788;12.904;2023-05-18T05:35:34;98491.94;;;6.84;77.83
72038;BME280;59900;50.788;12.904;2023-05-18T05:37:59;98496.56;;;6.90;77.83
72038;BME280;59900;50.788;12.904;2023-05-18T05:40:25;98502.28;;;6.93;77.35
72038;BME280;59900;50.788;12.904;2023-05-18T05:42:50;98499.91;;;7.00;77.72
72038;BME280;59900;50.788;12.904;2023-05-18T05:45:15;98498.34;;;7.07;77.68
72038;BME280;59900;50.788;12.904;2023-05-18T05:47:41;98501.97;;;7.14;77.70
72038;BME280;59900;50.788;12.904;2023-05-18T05:50:06;98503.84;;;7.21;77.39
72038;BME280;59900;50.788;12.904;2023-05-18T05:52:31;98501.59;;;7.26;77.00
72038;BME280;59900;50.788;12.904;2023-05-18T05:54:57;98507.66;;;7.27;76.66
72038;BME280;59900;50.788;12.904;2023-05-18T05:57:22;98512.88;;;7.27;76.38
72038;BME280;59900;50.788;12.904;2023-05-18T05:59:47;98507.72;;;7.35;76.23
72038;BME280;59900;50.788;12.904;2023-05-18T06:02:12;98502.69;;;7.42;76.18
72038;BME280;59900;50.788;12.904;2023-05-18T06:04:38;98510.25;;;7.45;75.69
72038;BME280;59900;50.788;12.904;2023-05-18T06:07:03;98503.28;;;7.53;75.19
72038;BME280;59900;50.788;12.904;2023-05-18T06:09:28;98501.00;;;7.58;74.99
72038;BME280;59900;50.788;12.904;2023-05-18T06:11:54;98511.81;;;7.63;74.98
72038;BME280;59900;50.788;12.904;2023-05-18T06:14:19;98511.22;;;7.69;74.38
72038;BME280;59900;50.788;12.904;2023-05-18T06:16:45;98512.25;;;7.76;74.73
72038;BME280;59900;50.788;12.904;2023-05-18T06:19:10;98509.69;;;7.84;74.40
72038;BME280;59900;50.788;12.904;2023-05-18T06:21:36;98520.66;;;7.88;73.84
72038;BME280;59900;50.788;12.904;2023-05-18T06:24:01;98518.25;;;7.95;73.84
72038;BME280;59900;50.788;12.904;2023-05-18T06:26:28;98519.75;;;7.97;73.61
72038;BME280;59900;50.788;12.904;2023-05-18T06:28:53;98520.09;;;8.02;73.52
72038;BME280;59900;50.788;12.904;2023-05-18T06:31:19;98522.06;;;8.08;73.58
72038;BME280;59900;50.788;12.904;2023-05-18T06:33:44;98526.91;;;8.21;74.26
72038;BME280;59900;50.788;12.904;2023-05-18T06:36:09;98526.66;;;8.32;73.31
72038;BME280;59900;50.788;12.904;2023-05-18T06:38:35;98534.38;;;8.41;73.14
72038;BME280;59900;50.788;12.904;2023-05-18T06:41:00;98527.38;;;8.50;72.29
72038;BME280;59900;50.788;12.904;2023-05-18T06:43:25;98529.81;;;8.52;70.96
72038;BME280;59900;50.788;12.904;2023-05-18T06:45:53;98528.72;;;8.54;70.14
72038;BME280;59900;50.788;12.904;2023-05-18T06:48:18;98531.34;;;8.62;71.08
72038;BME280;59900;50.788;12.904;2023-05-18T06:50:43;98532.69;;;8.74;71.06
72038;BME280;59900;50.788;12.904;2023-05-18T06:53:09;98531.56;;;8.85;70.11
72038;BME280;59900;50.788;12.904;2023-05-18T06:55:35;98538.97;;;8.97;69.45
72038;BME280;59900;50.788;12.904;2023-05-18T06:58:00;98528.50;;;9.06;69.36
72038;BME280;59900;50.788;12.904;2023-05-18T07:00:26;98531.13;;;9.14;68.92
72038;BME280;59900;50.788;12.904;2023-05-18T07:02:52;98527.69;;;9.21;69.32
72038;BME280;59900;50.788;12.904;2023-05-18T07:05:17;98533.75;;;9.30;68.30
72038;BME280;59900;50.788;12.904;2023-05-18T07:07:43;98525.56;;;9.33;67.80
72038;BME280;59900;50.788;12.904;2023-05-18T07:10:08;98522.13;;;9.32;66.45
72038;BME280;59900;50.788;12.904;2023-05-18T07:12:33;98521.13;;;9.25;67.22
72038;BME280;59900;50.788;12.904;2023-05-18T07:14:59;98519.66;;;9.23;67.05
72038;BME280;59900;50.788;12.904;2023-05-18T07:17:24;98524.75;;;9.32;67.42
72038;BME280;59900;50.788;12.904;2023-05-18T07:19:49;98519.16;;;9.43;67.91
72038;BME280;59900;50.788;12.904;2023-05-18T07:22:14;98518.50;;;9.57;67.89
72038;BME280;59900;50.788;12.904;2023-05-18T07:24:40;98518.31;;;9.67;65.02
72038;BME280;59900;50.788;12.904;2023-05-18T07:27:05;98520.25;;;9.81;65.29
72038;BME280;59900;50.788;12.904;2023-05-18T07:29:31;98525.50;;;9.89;63.94
72038;BME280;59900;50.788;12.904;2023-05-18T07:31:56;98520.06;;;9.99;63.00
72038;BME280;59900;50.788;12.904;2023-05-18T07:34:22;98516.63;;;10.06;63.02
72038;BME280;59900;50.788;12.904;2023-05-18T07:36:47;98526.78;;;10.18;63.32
72038;BME280;59900;50.788;12.904;2023-05-18T07:39:12;98526.41;;;10.29;62.81
72038;BME280;59900;50.788;12.904;2023-05-18T07:41:44;98530.00;;;10.36;61.97
72038;BME280;59900;50.788;12.904;2023-05-18T07:44:10;98528.84;;;10.38;60.75
72038;BME280;59900;50.788;12.904;2023-05-18T07:46:35;98534.59;;;10.42;59.31
72038;BME280;59900;50.788;12.904;2023-05-18T07:49:01;98529.00;;;10.45;59.78
72038;BME280;59900;50.788;12.904;2023-05-18T07:51:26;98538.63;;;10.52;60.50
72038;BME280;59900;50.788;12.904;2023-05-18T07:53:51;98536.44;;;10.64;60.80
72038;BME280;59900;50.788;12.904;2023-05-18T07:56:16;98533.63;;;10.74;61.40
72038;BME280;59900;50.788;12.904;2023-05-18T07:58:42;98536.00;;;10.83;60.16
72038;BME280;59900;50.788;12.904;2023-05-18T08:01:08;98524.44;;;10.92;60.11
72038;BME280;59900;50.788;12.904;2023-05-18T08:03:33;98523.34;;;10.87;58.77
72038;BME280;59900;50.788;12.904;2023-05-18T08:05:59;98519.84;;;10.94;59.49
72038;BME280;59900;50.788;12.904;2023-05-18T08:08:24;98530.84;;;10.98;58.86
72038;BME280;59900;50.788;12.904;2023-05-18T08:10:50;98528.44;;;11.11;59.16
72038;BME280;59900;50.788;12.904;2023-05-18T08:13:16;98531.69;;;11.21;59.08
72038;BME280;59900;50.788;12.904;2023-05-18T08:15:42;98525.66;;;11.35;58.81
72038;BME280;59900;50.788;12.904;2023-05-18T08:18:07;98525.41;;;11.45;57.87
72038;BME280;59900;50.788;12.904;2023-05-18T08:20:32;98532.22;;;11.54;57.44
72038;BME280;59900;50.788;12.904;2023-05-18T08:22:58;98528.72;;;11.61;57.35
72038;BME280;59900;50.788;12.904;2023-05-18T08:25:24;98528.53;;;11.63;56.40
72038;BME280;59900;50.788;12.904;2023-05-18T08:27:49;98534.56;;;11.71;56.20
72038;BME280;59900;50.788;12.904;2023-05-18T08:30:14;98524.69;;;11.73;55.23
72038;BME280;59900;50.788;12.904;2023-05-18T08:32:40;98520.53;;;11.79;54.61
72038;BME280;59900;50.788;12.904;2023-05-18T08:35:06;98529.88;;;11.82;54.69
72038;BME280;59900;50.788;12.904;2023-05-18T08:37:32;98524.25;;;11.85;54.85
72038;BME280;59900;50.788;12.904;2023-05-18T08:39:57;98527.34;;;11.88;53.65
72038;BME280;59900;50.788;12.904;2023-05-18T08:42:50;98502.44;;;11.76;52.94
72038;BME280;59900;50.788;12.904;2023-05-18T08:45:53;98527.00;;;11.68;54.19
72038;BME280;59900;50.788;12.904;2023-05-18T08:48:22;98517.00;;;11.64;54.48
72038;BME280;59900;50.788;12.904;2023-05-18T08:50:49;98517.84;;;11.64;54.70
72038;BME280;59900;50.788;12.904;2023-05-18T08:53:17;98519.44;;;11.73;55.20
72038;BME280;59900;50.788;12.904;2023-05-18T08:55:42;98519.59;;;11.72;54.83
72038;BME280;59900;50.788;12.904;2023-05-18T08:58:12;98513.28;;;11.58;55.05
72038;BME280;59900;50.788;12.904;2023-05-18T09:00:40;98517.00;;;11.64;55.47
72038;BME280;59900;50.788;12.904;2023-05-18T09:03:05;98516.66;;;11.67;54.95
72038;BME280;59900;50.788;12.904;2023-05-18T09:05:30;98512.25;;;11.82;55.85
72038;BME280;59900;50.788;12.904;2023-05-18T09:07:56;98513.81;;;11.91;55.40
72038;BME280;59900;50.788;12.904;2023-05-18T09:10:22;98504.47;;;11.89;55.15
72038;BME280;59900;50.788;12.904;2023-05-18T09:12:49;98497.09;;;11.99;55.25
72038;BME280;59900;50.788;12.904;2023-05-18T09:15:15;98500.72;;;12.12;55.34
72038;BME280;59900;50.788;12.904;2023-05-18T09:17:41;98500.28;;;12.23;54.60
72038;BME280;59900;50.788;12.904;2023-05-18T09:20:07;98488.31;;;12.21;52.83
72038;BME280;59900;50.788;12.904;2023-05-18T09:22:33;98497.47;;;12.25;53.34
72038;BME280;59900;50.788;12.904;2023-05-18T09:25:07;98485.84;;;12.19;52.11
72038;BME280;59900;50.788;12.904;2023-05-18T09:27:33;98490.56;;;12.24;52.38
72038;BME280;59900;50.788;12.904;2023-05-18T09:29:58;98489.66;;;12.31;52.99
72038;BME280;59900;50.788;12.904;2023-05-18T09:32:24;98479.56;;;12.06;52.10
72038;BME280;59900;50.788;12.904;2023-05-18T09:34:50;98501.38;;;12.00;53.41
72038;BME280;59900;50.788;12.904;2023-05-18T09:37:19;98501.03;;;12.03;53.07
72038;BME280;59900;50.788;12.904;2023-05-18T09:39:59;98505.00;;;12.13;53.46
72038;BME280;59900;50.788;12.904;2023-05-18T09:42:35;98498.19;;;12.33;54.09
72038;BME280;59900;50.788;12.904;2023-05-18T09:45:03;98506.63;;;12.44;52.70
72038;BME280;59900;50.788;12.904;2023-05-18T09:47:28;98507.97;;;12.54;52.84
72038;BME280;59900;50.788;12.904;2023-05-18T09:49:55;98512.38;;;12.68;52.41
72038;BME280;59900;50.788;12.904;2023-05-18T09:52:21;98502.28;;;12.72;51.73
72038;BME280;59900;50.788;12.904;2023-05-18T09:54:56;98506.97;;;12.55;51.05
72038;BME280;59900;50.788;12.904;2023-05-18T09:57:21;98508.63;;;12.56;52.05
72038;BME280;59900;50.788;12.904;2023-05-18T09:59:54;98487.16;;;12.59;50.95
72038;BME280;59900;50.788;12.904;2023-05-18T10:02:20;98507.31;;;12.67;50.92
72038;BME280;59900;50.788;12.904;2023-05-18T10:04:49;98505.00;;;12.78;51.09
72038;BME280;59900;50.788;12.904;2023-05-18T10:07:15;98500.31;;;12.74;49.78
72038;BME280;59900;50.788;12.904;2023-05-18T10:09:42;98495.63;;;12.90;49.41
72038;BME280;59900;50.788;12.904;2023-05-18T10:12:16;98498.81;;;13.07;49.59
72038;BME280;59900;50.788;12.904;2023-05-18T10:14:43;98491.50;;;13.24;50.15
72038;BME280;59900;50.788;12.904;2023-05-18T10:17:12;98496.13;;;13.43;48.84
72038;BME280;59900;50.788;12.904;2023-05-18T10:19:39;98479.63;;;13.62;49.74
72038;BME280;59900;50.788;12.904;2023-05-18T10:22:06;98493.38;;;13.79;49.33
72038;BME280;59900;50.788;12.904;2023-05-18T10:24:35;98472.84;;;13.81;48.91
72038;BME280;59900;50.788;12.904;2023-05-18T10:27:05;98485.97;;;13.95;48.52
72038;BME280;59900;50.788;12.904;2023-05-18T10:29:33;98480.63;;;13.89;48.56
72038;BME280;59900;50.788;12.904;2023-05-18T10:31:59;98483.53;;;14.00;48.79
72038;BME280;59900;50.788;12.904;2023-05-18T10:34:28;98483.19;;;14.10;48.99
72038;BME280;59900;50.788;12.904;2023-05-18T10:36:54;98481.16;;;14.06;47.14
72038;BME280;59900;50.788;12.904;2023-05-18T10:39:20;98490.31;;;14.10;48.38
72038;BME280;59900;50.788;12.904;2023-05-18T10:41:46;98484.88;;;14.24;48.47
72038;BME280;59900;50.788;12.904;2023-05-18T10:44:14;98486.16;;;14.28;47.69
72038;BME280;59900;50.788;12.904;2023-05-18T10:46:39;98483.91;;;14.25;47.38
72038;BME280;59900;50.788;12.904;2023-05-18T10:49:06;98482.03;;;13.85;47.80
72038;BME280;59900;50.788;12.904;2023-05-18T10:51:42;98476.25;;;13.75;48.51
72038;BME280;59900;50.788;12.904;2023-05-18T10:54:13;98471.47;;;13.85;48.32
72038;BME280;59900;50.788;12.904;2023-05-18T10:56:44;98482.75;;;14.00;48.57
72038;BME280;59900;50.788;12.904;2023-05-18T10:59:12;98473.63;;;14.09;48.26
72038;BME280;59900;50.788;12.904;2023-05-18T11:01:39;98474.53;;;14.23;47.96
72038;BME280;59900;50.788;12.904;2023-05-18T11:04:08;98464.38;;;14.26;47.01
72038;BME280;59900;50.788;12.904;2023-05-18T11:06:33;98469.97;;;14.38;47.80
72038;BME280;59900;50.788;12.904;2023-05-18T11:09:00;98463.63;;;14.39;46.97
72038;BME280;59900;50.788;12.904;2023-05-18T11:11:26;98459.28;;;14.25;47.54
72038;BME280;59900;50.788;12.904;2023-05-18T11:13:59;98465.44;;;14.32;47.50
72038;BME280;59900;50.788;12.904;2023-05-18T11:16:32;98463.03;;;14.37;47.35
72038;BME280;59900;50.788;12.904;2023-05-18T11:19:05;98461.06;;;14.52;47.36
72038;BME280;59900;50.788;12.904;2023-05-18T11:24:28;98462.16;;;14.84;46.92
72038;BME280;59900;50.788;12.904;2023-05-18T11:27:06;98446.03;;;14.66;45.80
72038;BME280;59900;50.788;12.904;2023-05-18T11:29:39;98457.00;;;14.63;45.28
72038;BME280;59900;50.788;12.904;2023-05-18T11:32:23;98455.00;;;14.71;46.27
72038;BME280;59900;50.788;12.904;2023-05-18T11:34:52;98452.22;;;14.99;46.17
72038;BME280;59900;50.788;12.904;2023-05-18T11:42:31;98455.50;;;15.27;45.34
72038;BME280;59900;50.788;12.904;2023-05-18T11:45:05;98450.59;;;15.24;44.40
72038;BME280;59900;50.788;12.904;2023-05-18T11:47:31;98453.06;;;15.39;44.71
72038;BME280;59900;50.788;12.904;2023-05-18T11:49:56;98441.25;;;15.74;44.47
72038;BME280;59900;50.788;12.904;2023-05-18T11:52:23;98437.91;;;16.05;44.58
72038;BME280;59900;50.788;12.904;2023-05-18T11:54:54;98444.56;;;16.27;43.72
72038;BME280;59900;50.788;12.904;2023-05-18T12:00:01;98444.72;;;16.39;42.71
72038;BME280;59900;50.788;12.904;2023-05-18T12:02:30;98446.13;;;16.41;42.97
72038;BME280;59900;50.788;12.904;2023-05-18T12:04:57;98443.53;;;16.35;43.24
72038;BME280;59900;50.788;12.904;2023-05-18T12:07:25;98443.06;;;16.44;43.10
72038;BME280;59900;50.788;12.904;2023-05-18T12:09:52;98437.28;;;16.67;44.03
72038;BME280;59900;50.788;12.904;2023-05-18T12:12:21;98442.09;;;16.83;43.17
72038;BME280;59900;50.788;12.904;2023-05-18T12:14:56;98431.81;;;16.93;42.00
72038;BME280;59900;50.788;12.904;2023-05-18T12:17:22;98425.97;;;16.34;40.70
72038;BME280;59900;50.788;12.904;2023-05-18T12:19:49;98429.63;;;16.39;42.15
72038;BME280;59900;50.788;12.904;2023-05-18T12:22:15;98437.31;;;16.60;42.58
72038;BME280;59900;50.788;12.904;2023-05-18T12:24:41;98429.19;;;16.87;42.26
72038;BME280;59900;50.788;12.904;2023-05-18T12:27:09;98424.91;;;16.41;40.68
72038;BME280;59900;50.788;12.904;2023-05-18T12:29:38;98427.66;;;16.15;42.70
72038;BME280;59900;50.788;12.904;2023-05-18T12:32:05;98431.97;;;16.16;42.22
72038;BME280;59900;50.788;12.904;2023-05-18T12:34:31;98437.25;;;16.22;42.53
72038;BME280;59900;50.788;12.904;2023-05-18T12:36:56;98437.44;;;16.27;41.84
72038;BME280;59900;50.788;12.904;2023-05-18T12:39:23;98420.03;;;15.81;42.90
72038;BME280;59900;50.788;12.904;2023-05-18T12:41:49;98429.56;;;15.95;43.38
72038;BME280;59900;50.788;12.904;2023-05-18T12:44:14;98426.25;;;16.19;43.02
72038;BME280;59900;50.788;12.904;2023-05-18T12:46:40;98428.22;;;16.37;42.79
72038;BME280;59900;50.788;12.904;2023-05-18T12:49:06;98424.16;;;16.34;42.66
72038;BME280;59900;50.788;12.904;2023-05-18T12:51:33;98431.66;;;16.44;41.71
72038;BME280;59900;50.788;12.904;2023-05-18T12:54:00;98427.28;;;16.62;41.80
72038;BME280;59900;50.788;12.904;2023-05-18T12:56:25;98423.94;;;17.11;41.28
72038;BME280;59900;50.788;12.904;2023-05-18T12:58:58;98421.50;;;17.59;41.01
72038;BME280;59900;50.788;12.904;2023-05-18T13:01:23;98420.13;;;18.11;39.95
72038;BME280;59900;50.788;12.904;2023-05-18T13:03:56;98420.44;;;18.58;37.85
72038;BME280;59900;50.788;12.904;2023-05-18T13:06:22;98404.13;;;19.07;37.24
72038;BME280;59900;50.788;12.904;2023-05-18T13:08:48;98416.16;;;19.39;36.53
72038;BME280;59900;50.788;12.904;2023-05-18T13:11:16;98412.06;;;19.95;37.33
72038;BME280;59900;50.788;12.904;2023-05-18T13:14:02;98405.53;;;20.26;36.41